Aérodrome :
LOGIN :

S'inscrire | Disclaimer

   EN    FR    IT 

 










Légende :    VFR   VFR Marginal   IFR   IFR Intensif   IFR Très Intensif
Visi : 
Plafond : 
>= 8 km
>= 3000ft
5 à 8 km
1000 à 3000 ft
1500m à 5 km
500 à 1000 ft
800 à 1500m
200 à 500 ft
< 800m
< 200 ft
Symboles :   Orages  Brouillard  Fortes neiges  Fortes précipitations  Vent > 20 kt
SIGMETs :   Divers  Orages  Givrage  Turbulence  Onde Orograph.  Cendres Volcan.






- Altitude de l'aérodrome : 1585 ft
- Code IATA : SIR


LSGS - Sion

DERNIER METAR :
  • 150450Z 28004KT 9999 SCT070 03/M03 Q1021

METARs EXPIRÉS :
  • 150420Z AUTO 26005KT 9999 FEW060 BKN075 03/M03 Q1021
  • 150350Z AUTO 27004KT 230V320 9999 BKN070 04/M04 Q1021
  • 150320Z AUTO VRB02KT 9999 SCT070 SCT080 03/M03 Q1021
  • 150250Z AUTO 26005KT 9999 SCT075 03/M03 Q1021
  • 150220Z AUTO 27005KT 230V300 9999 BKN065 04/M04 Q1021

TAF TAF LSGS
Valide du 15 à 03h jusqu'au 15 à 12h UTC


150225Z 1503/1512 26004KT 9999 SCT060



MET'MAP, la Météo Aéronautique d'un coup d'oeil ! - Copyright ORBIFLY Décembre 2007 - Disclaimer

ORBIFLY MET'MAP TEAM :

Programmation & Développement : Alexandra Zaïnal
Sur une idée originale de : Baudouin d'Aumeries
Assistance à la programmation : Marc-Olivier Méhu
Soutien technique & logistique : Manuel Goepfert

Contact : metmap@orbifly.com




SOURCES & CREDITS :

   NOAA